Time;durP1;ratioP1;P1;durP2;ratioP2;P2;SDS_P1;SDS_P2;PMS_P1;PMS_P2;Temp;Humidity;BMP_temperature;BMP_pressure;BME280_temperature;BME280_humidity;BME280_pressure;Samples;Min_cycle;Max_cycle;Signal;HPM_P1;HPM_P2
2023/05/02 00:00:02;;;;;;;;;13.25;13.25;;;;;12.31;100.00;101271.94;5078191;27;45616;-77
2023/05/02 00:02:28;;;;;;;;;11.50;11.50;;;;;12.20;100.00;101254.72;5077812;28;45399;-78
2023/05/02 00:04:53;;;;;;;;;15.50;15.50;;;;;12.36;100.00;101281.38;5077439;27;45354;-79
2023/05/02 00:07:19;;;;;;;;;13.25;13.00;;;;;12.38;100.00;101297.16;5059780;28;45442;-79
2023/05/02 00:09:45;;;;;;;;;14.25;14.25;;;;;12.31;100.00;101287.75;5078158;27;45301;-78
2023/05/02 00:12:10;;;;;;;;;12.00;12.00;;;;;12.32;100.00;101292.97;5077853;27;46257;-78
2023/05/02 00:14:36;;;;;;;;;16.00;15.50;;;;;12.25;100.00;101284.44;5077961;28;45336;-80
2023/05/02 00:17:01;;;;;;;;;14.00;14.00;;;;;12.27;100.00;101287.00;5077928;28;45386;-78
2023/05/02 00:19:26;;;;;;;;;16.50;16.50;;;;;12.16;100.00;101276.81;5077783;27;45496;-78
2023/05/02 00:21:52;;;;;;;;;11.75;11.75;;;;;12.23;100.00;101298.56;5077415;28;46346;-79
2023/05/02 00:24:18;;;;;;;;;16.50;16.50;;;;;12.17;100.00;101283.81;5077133;27;45334;-78
2023/05/02 00:26:43;;;;;;;;;17.75;17.75;;;;;12.17;100.00;101283.81;5077669;27;45482;-78
2023/05/02 00:29:08;;;;;;;;;15.25;15.25;;;;;12.11;100.00;101278.75;5077714;28;45447;-79
2023/05/02 00:31:34;;;;;;;;;17.50;17.00;;;;;12.03;100.00;101268.50;5077346;27;46296;-78
2023/05/02 00:34:00;;;;;;;;;15.50;15.50;;;;;12.02;100.00;101277.31;5059156;28;45363;-78
2023/05/02 00:36:26;;;;;;;;;13.25;13.25;;;;;12.04;100.00;101288.69;5077209;27;45691;-78
2023/05/02 00:38:51;;;;;;;;;16.25;15.50;;;;;11.97;100.00;101279.22;5077613;28;45543;-78
2023/05/02 00:41:17;;;;;;;;;17.00;17.00;;;;;11.90;100.00;101273.28;5077527;28;46367;-76
2023/05/02 00:43:42;;;;;;;;;19.25;19.25;;;;;11.91;100.00;101277.66;5061859;28;45230;-78
2023/05/02 00:46:10;;;;;;;;;18.50;18.50;;;;;11.87;100.00;101275.19;5059216;28;45326;-79
2023/05/02 00:48:36;;;;;;;;;17.00;17.00;;;;;11.90;100.00;101278.56;5077788;27;45340;-78
2023/05/02 00:51:07;;;;;;;;;16.00;16.00;;;;;11.91;100.00;101285.56;5059004;28;46630;-79
2023/05/02 00:53:32;;;;;;;;;12.50;12.25;;;;;11.86;100.00;101281.38;5076898;27;45241;-78
2023/05/02 00:55:58;;;;;;;;;20.75;20.50;;;;;11.85;100.00;101285.78;5076869;27;45393;-78
2023/05/02 00:58:25;;;;;;;;;18.75;18.75;;;;;11.77;100.00;101280.78;5077209;27;45539;-79
2023/05/02 01:01:02;;;;;;;;;18.75;18.75;;;;;11.82;100.00;101291.16;5076569;27;45402;-79
2023/05/02 01:04:06;;;;;;;;;18.00;18.00;;;;;11.80;100.00;101293.84;5076275;27;45346;-79
2023/05/02 01:06:34;;;;;;;;;17.25;17.25;;;;;11.79;100.00;101281.59;4994182;28;45431;-78
2023/05/02 01:09:28;;;;;;;;;12.50;12.50;;;;;11.80;100.00;101291.22;4994129;28;45319;-78
2023/05/02 01:12:04;;;;;;;;;18.00;18.00;;;;;11.72;100.00;101279.19;5049874;28;46325;-77
2023/05/02 01:14:34;;;;;;;;;17.75;17.75;;;;;11.77;100.00;101286.06;5058392;28;45297;-78
2023/05/02 01:17:06;;;;;;;;;16.50;16.50;;;;;11.76;100.00;101284.31;5059468;28;45390;-78
2023/05/02 01:19:37;;;;;;;;;18.75;18.25;;;;;11.76;100.00;101286.97;5077177;28;45366;-78
2023/05/02 01:22:05;;;;;;;;;21.50;21.50;;;;;11.74;100.00;101287.91;5058146;28;48081;-78
2023/05/02 01:24:54;;;;;;;;;19.00;19.00;;;;;11.73;100.00;101294.97;5076121;27;45383;-78
2023/05/02 01:27:47;;;;;;;;;21.75;20.00;;;;;11.72;100.00;101301.16;5076486;28;45413;-78
2023/05/02 01:30:15;;;;;;;;;17.50;17.50;;;;;11.69;100.00;101296.84;5077101;27;45173;-79
2023/05/02 01:32:44;;;;;;;;;17.75;17.75;;;;;11.69;100.00;101296.00;5076894;27;46216;-78
2023/05/02 01:35:12;;;;;;;;;20.25;19.50;;;;;11.66;100.00;101299.56;5076977;27;45276;-78
2023/05/02 01:37:40;;;;;;;;;19.00;19.00;;;;;11.53;100.00;101270.13;5076863;27;45247;-78
2023/05/02 01:40:08;;;;;;;;;17.75;17.75;;;;;11.67;100.00;101287.28;5077161;27;45296;-77
2023/05/02 01:42:36;;;;;;;;;21.50;19.50;;;;;11.58;100.00;101277.88;5077012;28;45426;-78
2023/05/02 01:45:04;;;;;;;;;24.00;24.00;;;;;11.60;100.00;101289.25;5076298;27;45276;-77
2023/05/02 01:47:34;;;;;;;;;21.00;21.00;;;;;11.61;100.00;101293.59;5075957;27;45698;-78
2023/05/02 01:50:02;;;;;;;;;23.25;23.25;;;;;11.42;100.00;101268.78;5076011;27;45311;-78
2023/05/02 01:52:29;;;;;;;;;23.75;23.75;;;;;11.54;100.00;101295.56;5075975;27;45458;-78
2023/05/02 01:54:58;;;;;;;;;21.50;21.50;;;;;11.47;100.00;101285.28;5057113;28;45533;-77
2023/05/02 01:57:24;;;;;;;;;20.50;20.50;;;;;11.38;100.00;101276.78;5075997;27;45308;-77
2023/05/02 01:59:50;;;;;;;;;18.75;18.75;;;;;11.49;100.00;101294.84;5076046;28;45505;-78
2023/05/02 02:02:16;;;;;;;;;24.25;23.50;;;;;11.47;100.00;101286.13;5075844;27;46308;-78
2023/05/02 02:04:43;;;;;;;;;20.25;19.50;;;;;11.46;100.00;101299.38;5076279;27;45231;-78
2023/05/02 02:07:12;;;;;;;;;20.00;20.00;;;;;11.48;100.00;101297.53;5075750;28;45418;-78
2023/05/02 02:09:38;;;;;;;;;18.50;18.50;;;;;11.39;100.00;101288.16;5075772;28;45558;-77
2023/05/02 02:12:12;;;;;;;;;21.50;21.50;;;;;11.36;100.00;101291.75;5075374;28;46119;-78
2023/05/02 02:14:42;;;;;;;;;22.75;22.75;;;;;11.38;100.00;101296.97;5075104;28;45402;-78
2023/05/02 02:17:14;;;;;;;;;20.25;20.25;;;;;11.28;100.00;101282.38;5074944;27;45345;-79
2023/05/02 02:19:41;;;;;;;;;21.00;21.00;;;;;11.31;100.00;101282.28;5057228;28;45264;-78
2023/05/02 02:22:08;;;;;;;;;23.00;23.00;;;;;11.24;100.00;101269.31;5075760;28;45422;-78
2023/05/02 02:24:36;;;;;;;;;21.00;20.25;;;;;11.37;100.00;101303.16;5075475;27;45427;-78
2023/05/02 02:27:02;;;;;;;;;18.25;18.25;;;;;11.33;100.00;101306.78;5075574;27;45335;-78
2023/05/02 02:29:27;;;;;;;;;23.00;22.75;;;;;11.33;100.00;101307.66;5075808;28;45402;-80
2023/05/02 02:31:53;;;;;;;;;25.00;23.50;;;;;11.24;100.00;101294.78;5056953;28;47076;-79
2023/05/02 02:34:19;;;;;;;;;23.00;21.25;;;;;11.32;100.00;101315.59;5056889;28;45460;-78
2023/05/02 02:36:52;;;;;;;;;21.00;21.00;;;;;11.25;100.00;101307.91;5075475;28;45342;-79
2023/05/02 02:39:42;;;;;;;;;29.25;26.00;;;;;11.27;100.00;101313.13;5075542;28;45426;-79
2023/05/02 02:42:38;;;;;;;;;22.75;22.75;;;;;11.23;100.00;101307.09;5074798;28;46421;-79
2023/05/02 02:45:15;;;;;;;;;23.25;23.25;;;;;11.23;100.00;101319.41;5028174;28;46210;-78
2023/05/02 02:48:01;;;;;;;;;16.00;16.00;;;;;11.22;100.00;101320.31;5075070;28;45290;-79
2023/05/02 02:50:52;;;;;;;;;24.50;24.50;;;;;11.19;100.00;101320.41;5056769;28;45476;-78
2023/05/02 02:53:24;;;;;;;;;24.75;24.25;;;;;11.16;100.00;101326.63;5075327;27;46809;-79
2023/05/02 02:55:59;;;;;;;;;25.00;25.00;;;;;11.19;100.00;101333.56;5075088;27;45288;-77
2023/05/02 02:58:51;;;;;;;;;26.25;24.50;;;;;11.15;100.00;101324.03;5075424;28;45474;-78
2023/05/02 03:01:21;;;;;;;;;25.75;24.50;;;;;11.18;100.00;101331.84;5075960;28;45400;-77
2023/05/02 03:03:48;;;;;;;;;26.00;25.25;;;;;11.11;100.00;101312.72;5057568;28;48108;-78
2023/05/02 03:06:15;;;;;;;;;23.25;23.25;;;;;11.15;100.00;101324.91;5057050;28;45403;-79
2023/05/02 03:08:42;;;;;;;;;23.50;22.75;;;;;11.06;100.00;101312.84;5074767;28;45339;-78
2023/05/02 03:11:08;;;;;;;;;26.75;25.25;;;;;11.04;100.00;101308.56;5074912;28;45279;-78
2023/05/02 03:13:34;;;;;;;;;28.75;28.75;;;;;11.10;100.00;101316.28;5055728;28;47380;-78
2023/05/02 03:16:29;;;;;;;;;26.00;25.25;;;;;11.05;100.00;101307.66;5074538;28;45344;-77
2023/05/02 03:18:55;;;;;;;;;25.75;24.00;;;;;11.02;100.00;101297.22;5042012;28;45317;-79
2023/05/02 03:21:20;;;;;;;;;29.25;26.25;;;;;11.06;100.00;101312.84;5075429;27;45881;-78
2023/05/02 03:23:45;;;;;;;;;24.00;24.00;;;;;11.10;100.00;101325.03;5074136;28;64317;-78
2023/05/02 03:26:11;;;;;;;;;27.00;27.00;;;;;11.01;100.00;101309.50;5074344;28;45336;-79
2023/05/02 03:28:36;;;;;;;;;23.75;23.75;;;;;11.06;100.00;101320.75;5074331;28;45457;-78
2023/05/02 03:31:02;;;;;;;;;27.75;27.25;;;;;11.04;100.00;101321.72;5074687;28;45333;-78
2023/05/02 03:33:27;;;;;;;;;23.25;23.25;;;;;11.08;100.00;101332.09;5056186;28;47360;-79
2023/05/02 03:35:53;;;;;;;;;27.75;27.25;;;;;11.00;100.00;101326.22;5074173;27;51889;-78
2023/05/02 03:38:18;;;;;;;;;29.25;27.75;;;;;11.02;100.00;101331.44;5074108;28;59458;-77
2023/05/02 03:40:43;;;;;;;;;27.00;26.00;;;;;10.91;100.00;101314.19;5074565;28;45315;-78
2023/05/02 03:43:08;;;;;;;;;25.75;25.75;;;;;11.00;100.00;101335.91;5067811;28;45495;-79
2023/05/02 03:45:34;;;;;;;;;28.00;26.25;;;;;10.97;100.00;101334.19;5054134;28;45440;-79
2023/05/02 03:47:59;;;;;;;;;24.50;24.50;;;;;10.86;100.00;101324.00;5074861;28;45370;-79
2023/05/02 03:50:25;;;;;;;;;33.50;30.75;;;;;10.92;100.00;101336.97;5074592;28;45650;-78
2023/05/02 03:52:50;;;;;;;;;26.75;26.75;;;;;10.90;100.00;101335.28;5074414;28;46290;-79
2023/05/02 03:55:15;;;;;;;;;26.25;26.25;;;;;10.88;100.00;101337.97;5074311;28;45507;-79
2023/05/02 03:57:41;;;;;;;;;30.50;29.50;;;;;10.82;100.00;101325.84;5055783;28;45755;-79
2023/05/02 04:00:07;;;;;;;;;29.75;29.50;;;;;10.80;100.00;101325.03;5064030;27;45340;-79
2023/05/02 04:02:32;;;;;;;;;20.75;20.00;;;;;10.79;100.00;101327.72;5053454;28;46512;-78
2023/05/02 04:04:58;;;;;;;;;28.50;28.25;;;;;10.65;100.00;101310.56;5069394;28;45401;-79
2023/05/02 04:07:24;;;;;;;;;23.75;23.25;;;;;10.70;100.00;101325.38;5073834;28;45430;-79
2023/05/02 04:09:50;;;;;;;;;31.00;29.75;;;;;10.68;100.00;101324.53;5074765;28;45264;-78
2023/05/02 04:12:16;;;;;;;;;31.00;29.75;;;;;10.75;100.00;101336.63;5073724;28;46661;-77
2023/05/02 04:14:41;;;;;;;;;27.25;27.25;;;;;10.71;100.00;101330.56;5073854;28;45394;-79
2023/05/02 04:17:07;;;;;;;;;32.25;30.50;;;;;10.74;100.00;101335.75;5063554;28;45245;-78
2023/05/02 04:19:33;;;;;;;;;29.25;29.25;;;;;10.72;100.00;101329.66;5053958;28;45443;-80
2023/05/02 04:21:58;;;;;;;;;31.75;30.00;;;;;10.66;100.00;101325.44;5046039;27;47430;-77
2023/05/02 04:24:24;;;;;;;;;27.25;27.25;;;;;10.67;100.00;101321.03;5056276;28;45415;-78
2023/05/02 04:26:49;;;;;;;;;30.50;30.00;;;;;10.71;100.00;101335.81;5054828;28;45367;-77
2023/05/02 04:29:15;;;;;;;;;28.00;27.50;;;;;10.70;100.00;101336.72;5072684;28;45252;-78
2023/05/02 04:31:40;;;;;;;;;27.75;27.75;;;;;10.70;100.00;101338.53;5052615;28;48091;-78
2023/05/02 04:34:06;;;;;;;;;31.50;30.50;;;;;10.71;100.00;101359.50;5072020;27;45351;-78
2023/05/02 04:36:32;;;;;;;;;32.75;31.50;;;;;10.64;100.00;101352.69;5052434;28;45332;-78
2023/05/02 04:38:58;;;;;;;;;29.25;28.50;;;;;10.64;100.00;101357.97;5054193;28;45521;-77
2023/05/02 04:41:23;;;;;;;;;28.75;28.25;;;;;10.59;100.00;101355.44;5056865;28;45351;-78
2023/05/02 04:43:49;;;;;;;;;30.75;29.75;;;;;10.52;100.00;101353.88;5071874;27;47003;-79
2023/05/02 04:46:19;;;;;;;;;32.50;29.50;;;;;10.63;100.00;101377.28;5067413;28;45273;-78
2023/05/02 04:48:45;;;;;;;;;34.75;32.75;;;;;10.54;100.00;101367.00;5074011;28;45383;-78
2023/05/02 04:51:10;;;;;;;;;33.50;32.00;;;;;10.55;100.00;101374.84;5073917;27;45463;-79
2023/05/02 04:53:36;;;;;;;;;36.75;33.00;;;;;10.54;100.00;101382.78;5076109;28;45502;-78
2023/05/02 04:56:02;;;;;;;;;31.00;30.00;;;;;10.56;100.00;101384.47;5074660;28;45510;-77
2023/05/02 04:58:28;;;;;;;;;36.00;31.75;;;;;10.44;100.00;101371.66;5057885;28;45330;-77
2023/05/02 05:00:53;;;;;;;;;41.50;34.50;;;;;10.58;100.00;101390.53;5074994;27;46436;-78
2023/05/02 05:03:19;;;;;;;;;39.00;34.50;;;;;10.53;100.00;101381.91;5048029;28;46277;-78
2023/05/02 05:05:44;;;;;;;;;36.75;33.50;;;;;10.62;100.00;101396.59;5074961;28;45431;-79
2023/05/02 05:08:10;;;;;;;;;35.00;32.50;;;;;10.61;100.00;101393.13;5073193;28;45343;-78
2023/05/02 05:10:35;;;;;;;;;40.50;35.25;;;;;10.61;100.00;101390.50;5067675;27;47706;-77
2023/05/02 05:13:00;;;;;;;;;41.75;37.00;;;;;10.54;100.00;101390.69;5064481;28;45361;-79
2023/05/02 05:15:26;;;;;;;;;40.50;36.00;;;;;10.56;100.00;101392.34;5059936;28;51427;-79
2023/05/02 05:17:51;;;;;;;;;40.75;35.25;;;;;10.58;100.00;101390.53;5075133;28;45308;-79
2023/05/02 05:20:17;;;;;;;;;36.00;34.25;;;;;10.61;100.00;101402.78;5075466;28;46470;-79
2023/05/02 05:22:42;;;;;;;;;37.50;35.00;;;;;10.64;100.00;101408.81;5074517;27;45382;-77
2023/05/02 05:25:08;;;;;;;;;37.50;33.75;;;;;10.66;100.00;101414.91;5076968;28;45304;-80
2023/05/02 05:27:35;;;;;;;;;51.00;42.25;;;;;10.68;100.00;101427.16;5074186;28;45272;-76
2023/05/02 05:30:00;;;;;;;;;45.00;39.00;;;;;10.66;100.00;101427.19;5076059;27;45649;-80
2023/05/02 05:32:26;;;;;;;;;45.75;38.75;;;;;10.65;100.00;101426.34;5057148;28;45306;-76
2023/05/02 05:34:52;;;;;;;;;48.25;41.25;;;;;10.54;100.00;101399.44;5058803;28;45315;-79
2023/05/02 05:37:18;;;;;;;;;43.25;37.25;;;;;10.65;100.00;101418.44;5048050;28;45591;-78
2023/05/02 05:39:43;;;;;;;;;41.25;36.75;;;;;10.71;100.00;101429.72;5073429;27;45810;-77
2023/05/02 05:42:09;;;;;;;;;49.50;41.50;;;;;10.68;100.00;101429.78;5069332;27;45919;-77
2023/05/02 05:44:35;;;;;;;;;45.00;38.75;;;;;10.73;100.00;101433.16;5066649;27;45499;-74
2023/05/02 05:47:00;;;;;;;;;49.75;42.50;;;;;10.74;100.00;101440.16;5072979;27;45470;-77
2023/05/02 05:49:25;;;;;;;;;46.25;39.50;;;;;10.71;100.00;101432.34;5074649;28;46512;-77
2023/05/02 05:51:51;;;;;;;;;45.75;39.00;;;;;10.77;100.00;101440.06;5076030;28;45372;-78
2023/05/02 05:54:17;;;;;;;;;46.00;39.50;;;;;10.78;100.00;101444.44;5072759;28;45474;-78
2023/05/02 05:56:43;;;;;;;;;48.50;40.50;;;;;10.82;100.00;101451.34;5069690;28;45518;-79
2023/05/02 05:59:08;;;;;;;;;51.75;44.00;;;;;10.72;100.00;101431.44;5064685;28;45371;-80
2023/05/02 06:01:34;;;;;;;;;52.25;44.25;;;;;10.83;100.00;101442.53;5074424;27;45682;-74
2023/05/02 06:04:00;;;;;;;;;53.75;45.50;;;;;10.90;100.00;101459.88;5075498;27;45512;-76
2023/05/02 06:06:26;;;;;;;;;50.00;42.25;;;;;10.89;100.00;101452.88;5076040;28;45634;-79
2023/05/02 06:08:51;;;;;;;;;41.50;37.50;;;;;10.91;100.00;101458.97;5057001;28;46211;-76
2023/05/02 06:11:17;;;;;;;;;45.75;39.50;;;;;10.96;100.00;101467.59;5075640;27;45424;-78
2023/05/02 06:13:42;;;;;;;;;39.25;35.75;;;;;11.01;100.00;101471.88;5074609;27;45460;-78
2023/05/02 06:16:07;;;;;;;;;37.50;34.50;;;;;11.06;100.00;101472.63;5074953;27;45441;-78
2023/05/02 06:18:33;;;;;;;;;39.50;34.75;;;;;11.04;100.00;101459.47;5075440;27;45415;-77
2023/05/02 06:21:03;;;;;;;;;37.25;34.50;;;;;11.20;100.00;101475.72;5076030;28;45423;-76
2023/05/02 06:23:29;;;;;;;;;41.25;36.50;;;;;11.26;100.00;101474.69;5075934;27;45358;-76
2023/05/02 06:25:58;;;;;;;;;35.50;33.00;;;;;11.31;100.00;101466.66;5075744;28;45591;-78
2023/05/02 06:28:23;;;;;;;;;34.75;33.75;;;;;11.35;100.00;101470.91;5057229;28;47371;-78
2023/05/02 06:31:03;;;;;;;;;32.00;31.50;;;;;11.42;100.00;101483.00;5075364;27;45273;-77
2023/05/02 06:33:29;;;;;;;;;31.00;28.50;;;;;11.48;100.00;101472.28;5076041;27;45358;-77
2023/05/02 06:35:55;;;;;;;;;34.50;30.75;;;;;11.54;100.00;101476.50;5075438;27;45443;-78
2023/05/02 06:38:21;;;;;;;;;30.50;30.00;;;;;11.60;100.00;101484.22;5074865;28;45379;-77
2023/05/02 06:40:46;;;;;;;;;38.25;34.75;;;;;11.61;100.00;101483.31;5074774;28;45396;-78
2023/05/02 06:43:12;;;;;;;;;34.00;31.25;;;;;11.67;100.00;101493.69;5075041;28;45335;-78
2023/05/02 06:45:38;;;;;;;;;28.75;28.75;;;;;11.68;100.00;101490.13;5056805;28;45382;-76
2023/05/02 06:48:04;;;;;;;;;33.00;31.75;;;;;11.78;100.00;101501.28;5074516;28;45612;-77
2023/05/02 06:50:29;;;;;;;;;39.00;34.50;;;;;11.82;100.00;101496.75;5074897;27;45228;-76
2023/05/02 06:52:55;;;;;;;;;36.25;32.00;;;;;11.92;100.00;101499.97;5075169;27;45335;-78
2023/05/02 06:55:21;;;;;;;;;32.00;30.50;;;;;11.98;100.00;101499.78;5056483;28;45217;-78
2023/05/02 06:57:48;;;;;;;;;32.50;31.50;;;;;12.06;100.00;101505.72;5074523;28;46225;-79
2023/05/02 07:00:15;;;;;;;;;29.50;29.00;;;;;12.10;100.00;101501.19;5074766;28;45246;-77
2023/05/02 07:02:40;;;;;;;;;35.25;33.50;;;;;12.15;100.00;101501.06;5074414;27;45387;-78
2023/05/02 07:05:06;;;;;;;;;33.75;31.50;;;;;12.14;100.00;101494.91;5074828;28;45338;-78
2023/05/02 07:07:31;;;;;;;;;33.00;31.00;;;;;12.22;100.00;101503.47;5074662;27;46703;-77
2023/05/02 07:09:56;;;;;;;;;29.00;28.25;;;;;12.24;100.00;101500.75;5075007;28;45422;-78
2023/05/02 07:12:21;;;;;;;;;29.75;29.00;;;;;12.26;100.00;101496.28;5074470;28;45446;-77
2023/05/02 07:14:47;;;;;;;;;37.25;32.75;;;;;12.35;100.00;101511.81;5074568;28;45297;-77
2023/05/02 07:17:12;;;;;;;;;25.75;25.25;;;;;12.36;100.00;101503.00;5056162;28;47370;-78
2023/05/02 07:19:38;;;;;;;;;32.50;31.50;;;;;12.38;100.00;101500.31;5074585;28;45383;-76
2023/05/02 07:22:03;;;;;;;;;28.75;27.75;;;;;12.43;100.00;101498.38;5075105;28;45431;-78
2023/05/02 07:24:29;;;;;;;;;32.00;29.75;;;;;12.54;100.00;101506.81;5075105;28;45671;-78
2023/05/02 07:26:54;;;;;;;;;23.25;23.00;;;;;12.53;100.00;101496.28;5074540;28;46277;-79
2023/05/02 07:29:19;;;;;;;;;32.50;30.50;;;;;12.62;100.00;101495.97;5074572;28;45202;-78
2023/05/02 07:31:45;;;;;;;;;37.25;32.50;;;;;12.72;100.00;101509.72;5074917;28;45395;-78
2023/05/02 07:34:10;;;;;;;;;29.00;28.25;;;;;12.78;100.00;101508.69;5074700;28;45345;-78
2023/05/02 07:36:35;;;;;;;;;29.00;29.00;;;;;12.82;100.00;101508.50;5055916;28;47900;-78
2023/05/02 07:39:01;;;;;;;;;29.50;29.00;;;;;12.85;100.00;101505.75;5074885;28;45459;-78
2023/05/02 07:41:26;;;;;;;;;31.25;28.75;;;;;12.85;100.00;101505.75;5074927;28;45229;-78
2023/05/02 07:43:52;;;;;;;;;28.75;27.00;;;;;12.92;100.00;101516.09;5074613;27;45279;-78
2023/05/02 07:46:17;;;;;;;;;27.75;27.50;;;;;12.99;100.00;101517.59;5074448;28;46093;-77
2023/05/02 07:48:43;;;;;;;;;27.50;27.50;;;;;13.04;100.00;101530.66;5074407;28;45227;-79
2023/05/02 07:51:09;;;;;;;;;26.25;26.25;;;;;13.11;100.00;101532.16;5056497;28;45294;-77
2023/05/02 07:53:35;;;;;;;;;32.50;28.75;;;;;13.12;100.00;101534.75;5075136;28;45539;-78
2023/05/02 07:56:03;;;;;;;;;30.50;29.50;;;;;13.14;100.00;101517.06;5055974;28;46004;-80
2023/05/02 07:58:28;;;;;;;;;25.25;24.50;;;;;13.16;100.00;101524.94;5055645;28;45379;-79
2023/05/02 08:00:54;;;;;;;;;28.25;27.50;;;;;13.26;100.00;101536.91;5074213;27;45402;-78
2023/05/02 08:03:19;;;;;;;;;28.25;27.50;;;;;13.34;100.00;101539.28;5074642;28;45303;-77
2023/05/02 08:05:45;;;;;;;;;27.00;27.00;;;;;13.36;100.00;101536.56;5055646;28;46144;-78
2023/05/02 08:08:10;;;;;;;;;29.50;29.50;;;;;13.40;100.00;101539.03;5074289;28;45271;-78
2023/05/02 08:10:35;;;;;;;;;27.50;26.50;;;;;13.47;100.00;101544.13;5074363;27;51258;-78
2023/05/02 08:13:01;;;;;;;;;26.50;26.00;;;;;13.44;100.00;101532.75;5074497;27;45265;-78
2023/05/02 08:15:26;;;;;;;;;28.75;28.25;;;;;13.47;100.00;101552.91;5058530;28;45958;-78
2023/05/02 08:17:52;;;;;;;;;34.50;32.25;;;;;13.54;100.00;101561.50;5077573;28;45353;-78
2023/05/02 08:20:18;;;;;;;;;29.75;29.75;;;;;13.59;100.00;101560.38;5077825;27;45319;-77
2023/05/02 08:22:43;;;;;;;;;34.00;31.50;;;;;13.61;100.00;101564.75;5059364;28;45588;-77
2023/05/02 08:25:08;;;;;;;;;28.50;28.50;;;;;13.60;100.00;101561.25;5077058;27;45340;-77
2023/05/02 08:27:34;;;;;;;;;29.50;29.00;;;;;13.56;100.00;101565.78;5077147;27;45489;-78
2023/05/02 08:29:59;;;;;;;;;33.25;31.50;;;;;13.62;100.00;101555.91;5058596;28;45514;-78
2023/05/02 08:32:25;;;;;;;;;30.75;27.50;;;;;13.65;100.00;101554.03;5076771;28;45286;-79
2023/05/02 08:34:54;;;;;;;;;34.25;32.50;;;;;13.65;100.00;101537.28;5076876;28;46076;-78
2023/05/02 08:37:19;;;;;;;;;31.25;30.25;;;;;13.75;100.00;101543.09;5058784;28;46201;-78
2023/05/02 08:39:44;;;;;;;;;38.00;33.25;;;;;13.94;100.00;101562.63;5076903;27;45351;-77
2023/05/02 08:42:10;;;;;;;;;41.75;37.00;;;;;14.05;100.00;101561.34;5077665;28;45582;-78
2023/05/02 08:44:36;;;;;;;;;25.00;25.00;;;;;14.06;100.00;101553.34;5078120;28;45593;-79
2023/05/02 08:47:02;;;;;;;;;35.75;32.00;;;;;14.21;100.00;101572.19;5077411;27;45448;-78
2023/05/02 08:49:33;;;;;;;;;27.50;26.00;;;;;14.12;100.00;101552.22;5078020;28;45251;-76
2023/05/02 08:52:01;;;;;;;;;35.00;33.00;;;;;14.24;100.00;101586.16;5076907;28;45380;-78
2023/05/02 08:54:26;;;;;;;;;37.50;34.25;;;;;14.26;100.00;101594.03;5076300;28;45367;-79
2023/05/02 08:56:55;;;;;;;;;36.75;33.50;;;;;14.26;100.00;101594.03;5058251;27;46425;-79
2023/05/02 08:59:21;;;;;;;;;35.00;31.75;;;;;14.25;100.00;101595.81;5076721;28;45348;-78
2023/05/02 09:01:57;;;;;;;;;34.00;31.50;;;;;14.26;100.00;101596.69;5076842;27;45671;-76
2023/05/02 09:04:29;;;;;;;;;34.75;32.50;;;;;14.27;100.00;101593.97;5076301;28;46283;-77
2023/05/02 09:06:54;;;;;;;;;41.00;36.00;;;;;14.25;100.00;101579.09;5076491;27;45465;-77
2023/05/02 09:09:20;;;;;;;;;39.00;35.00;;;;;14.42;100.00;101602.25;5058060;28;45431;-77
2023/05/02 09:11:50;;;;;;;;;43.50;36.50;;;;;14.50;100.00;101601.91;5077427;28;45563;-78
2023/05/02 09:14:16;;;;;;;;;38.50;34.50;;;;;14.53;100.00;101605.31;5059390;28;47967;-77
2023/05/02 09:16:42;;;;;;;;;42.75;37.75;;;;;14.63;100.00;101608.44;5061350;28;45331;-77
2023/05/02 09:19:08;;;;;;;;;47.00;40.25;;;;;14.72;100.00;101609.88;5081061;27;45358;-77
2023/05/02 09:21:36;;;;;;;;;45.00;38.25;;;;;14.81;100.00;101614.81;5059465;28;45328;-78
2023/05/02 09:24:14;;;;;;;;;43.00;37.50;;;;;14.95;100.00;101616.00;5076394;28;45390;-78
2023/05/02 09:26:40;;;;;;;;;46.75;40.00;;;;;15.04;100.00;101611.19;5058125;28;45352;-77
2023/05/02 09:29:05;;;;;;;;;48.75;41.50;;;;;15.11;100.00;101626.84;5076388;28;45248;-76
2023/05/02 09:31:35;;;;;;;;;38.25;35.00;;;;;15.09;100.00;101623.38;5058255;28;45527;-78
2023/05/02 09:34:08;;;;;;;;;40.75;35.50;;;;;15.01;100.00;101634.28;5057661;28;46286;-79
2023/05/02 09:36:39;;;;;;;;;41.00;36.00;;;;;14.96;100.00;101620.38;5076102;27;45224;-78
2023/05/02 09:39:12;;;;;;;;;40.75;34.75;;;;;14.94;100.00;101624.88;5075894;28;45482;-79
2023/05/02 09:41:45;;;;;;;;;41.00;36.00;;;;;14.99;100.00;101626.44;5057475;28;45478;-78
2023/05/02 09:44:13;;;;;;;;;44.50;38.50;;;;;14.93;100.00;101604.63;5075774;27;45429;-78
2023/05/02 09:46:53;;;;;;;;;41.00;36.00;;;;;15.10;100.00;101638.34;5075692;27;45425;-78
2023/05/02 09:49:19;;;;;;;;;47.00;40.00;;;;;15.13;100.00;101638.22;5075654;28;45346;-78
2023/05/02 09:51:46;;;;;;;;;35.00;32.50;;;;;15.18;100.00;101636.25;5075858;27;45462;-78
2023/05/02 09:54:12;;;;;;;;;45.75;38.75;;;;;15.22;100.00;101639.59;5057670;28;46138;-77
2023/05/02 09:56:56;;;;;;;;;38.25;35.00;;;;;15.26;100.00;101625.28;5058773;28;45435;-79
2023/05/02 09:59:22;;;;;;;;;46.00;40.00;;;;;15.34;100.00;101631.13;5078296;28;45410;-78
2023/05/02 10:01:56;;;;;;;;;33.50;32.25;;;;;15.39;100.00;101638.88;5077518;27;45421;-78
2023/05/02 10:04:22;;;;;;;;;31.25;30.00;;;;;15.31;100.00;101618.88;5076711;27;46495;-78
2023/05/02 10:06:50;;;;;;;;;28.75;28.75;;;;;15.34;100.00;101629.34;5076549;27;45432;-78
2023/05/02 10:09:16;;;;;;;;;36.50;33.25;;;;;15.46;100.00;101637.69;5057801;28;45319;-77
2023/05/02 10:11:43;;;;;;;;;32.25;30.50;;;;;15.45;100.00;101636.84;5075817;28;45640;-77
2023/05/02 10:14:11;;;;;;;;;20.50;20.50;;;;;15.55;100.00;101629.31;5056972;28;46984;-78
2023/05/02 10:16:46;;;;;;;;;28.50;28.50;;;;;15.55;100.00;101631.97;5075661;28;45424;-78
2023/05/02 10:19:13;;;;;;;;;22.75;22.75;;;;;15.58;100.00;101637.16;5076796;28;45429;-78
2023/05/02 10:21:41;;;;;;;;;27.50;27.50;;;;;15.58;100.00;101638.94;5076318;27;45312;-77
2023/05/02 10:24:08;;;;;;;;;33.75;32.00;;;;;15.59;100.00;101643.31;5075747;28;45489;-78
2023/05/02 10:26:35;;;;;;;;;23.50;23.50;;;;;15.60;100.00;101639.75;5057132;27;45270;-79
2023/05/02 10:29:01;;;;;;;;;27.75;27.75;;;;;15.60;100.00;101629.97;5075410;28;45520;-78
2023/05/02 10:31:31;;;;;;;;;29.25;27.75;;;;;15.65;100.00;101632.44;5075601;27;45355;-78
2023/05/02 10:33:58;;;;;;;;;24.75;24.75;;;;;15.67;100.00;101625.28;5075490;28;45270;-78
2023/05/02 10:36:24;;;;;;;;;35.25;33.00;;;;;15.73;100.00;101632.97;5074144;28;45238;-78
2023/05/02 10:38:50;;;;;;;;;54.25;45.50;;;;;15.79;100.00;101629.16;5075297;27;45432;-78
2023/05/02 10:41:20;;;;;;;;;62.75;52.00;;;;;15.88;100.00;101634.06;5057327;28;45454;-79
2023/05/02 10:43:48;;;;;;;;;39.50;35.50;;;;;15.95;100.00;101634.66;5075331;27;46192;-78
2023/05/02 10:46:34;;;;;;;;;24.50;24.50;;;;;15.94;98.73;101635.59;5075468;28;45193;-79
2023/05/02 10:49:04;;;;;;;;;30.25;29.25;;;;;15.99;100.00;101638.88;5075246;27;45424;-78
2023/05/02 10:51:31;;;;;;;;;27.25;27.25;;;;;16.04;97.36;101641.34;5076008;28;45313;-78
2023/05/02 10:54:18;;;;;;;;;29.25;29.00;;;;;16.08;100.00;101634.09;5075365;27;45945;-78
2023/05/02 10:57:08;;;;;;;;;24.75;24.75;;;;;16.12;97.08;101641.84;5056705;28;45249;-79
2023/05/02 10:59:40;;;;;;;;;25.00;25.00;;;;;16.08;96.01;101640.28;5075132;27;45320;-78
2023/05/02 11:02:29;;;;;;;;;32.75;31.25;;;;;16.09;97.39;101639.34;5075084;27;45497;-78
2023/05/02 11:05:08;;;;;;;;;29.25;29.25;;;;;16.14;99.24;101628.50;5047090;28;47338;-78